Latest Weather Observations for Frankston

IDV60901

Issued at 1:21 am EST Monday 27 June 2016 (issued every 10 minutes, with the page automatically refreshed every 10 minutes)

About weather observations | Map of Melbourne area stations | Latest observations for Melbourne area | Other Formats
Station Details ID: 086371 Name: FRANKSTON AWS Lat: -38.15 Lon: 145.12 Height: 6.0 m
Data from the previous 72 hours. | See also: Recent months at Frankston
Date/Time
EST
Temp
°C
App
Temp
°C
Dew
Point
°C
Rel
Hum
%
Delta-T
°C
Wind Press
QNH
hPa
Press
MSL
hPa
Rain since
9am
mm
Dir  Spd
km/h
Gust
km/h
Spd
kts
Gust
kts
27/01:00am 7.7 3.3 4.7 81 1.3 NNE 17 24 9 13 - - -
27/12:30am 7.6 2.7 4.2 79 1.5 NNE 19 26 10 14 - - -
27/12:00am 6.8 3.2 2.9 76 1.6 NE 11 19 6 10 - - -
 
Date/Time
EST
Temp
°C
App
Temp
°C
Dew
Point
°C
Rel
Hum
%
Delta-T
°C
Wind Press
QNH
hPa
Press
MSL
hPa
Rain since
9am
mm
Dir  Spd
km/h
Gust
km/h
Spd
kts
Gust
kts
26/11:30pm 7.9 3.7 3.9 76 1.7 NNE 15 28 8 15 - - -
26/11:00pm 7.1 3.5 2.8 74 1.8 NNE 11 22 6 12 - - -
26/10:30pm 7.3 3.0 3.0 74 1.8 NNE 15 26 8 14 - - -
26/10:00pm 8.7 2.1 4.3 74 1.9 N 28 32 15 17 - - -
26/09:30pm 8.8 2.6 4.4 74 1.9 N 26 33 14 18 - - -
26/09:00pm 8.9 2.3 4.1 72 2.1 N 28 33 15 18 - - -
26/08:30pm 9.0 2.5 4.6 74 1.9 N 28 35 15 19 - - -
26/08:00pm 8.7 2.9 4.3 74 1.9 N 24 30 13 16 - - -
26/07:30pm 8.7 2.8 4.1 73 2.0 N 24 30 13 16 - - -
26/07:00pm 8.9 2.6 3.7 70 2.3 N 26 32 14 17 - - -
26/06:30pm 9.7 4.1 3.2 64 2.8 N 22 28 12 15 - - -
26/06:00pm 9.9 4.0 3.9 66 2.6 NNW 24 30 13 16 - - -
26/05:30pm 10.0 3.9 2.8 61 3.1 NNW 24 28 13 15 - - -
26/05:00pm 10.0 3.9 2.6 60 3.2 NNW 24 28 13 15 - - -
26/04:30pm 10.2 3.7 2.8 60 3.2 N 26 33 14 18 - - -
26/04:00pm 9.8 3.5 3.5 65 2.7 N 26 33 14 18 - - -
26/03:30pm 9.8 3.5 3.5 65 2.7 N 26 32 14 17 - - -
26/03:00pm 9.8 3.5 4.0 67 2.6 N 26 32 14 17 - - -
26/02:30pm 10.0 3.7 3.7 65 2.8 N 26 32 14 17 - - -
26/02:00pm 9.9 4.3 3.6 65 2.7 N 22 30 12 16 - - -
26/01:30pm 9.7 3.8 3.7 66 2.6 NNW 24 32 13 17 - - -
26/01:00pm 9.8 3.5 3.8 66 2.6 NNW 26 32 14 17 - - -
26/12:30pm 9.6 4.5 4.0 68 2.5 N 20 28 11 15 - - -
26/12:00pm 9.2 4.1 4.2 71 2.2 N 20 28 11 15 - - -
26/11:30am 8.7 3.2 4.1 73 2.0 N 22 28 12 15 - - -
26/11:00am 8.4 3.6 4.6 77 1.7 N 19 22 10 12 - - -
26/10:30am 7.9 2.9 4.5 79 1.5 N 20 26 11 14 - - -
26/10:00am 7.3 2.8 4.4 82 1.3 N 17 20 9 11 - - -
26/09:30am 6.8 1.4 4.3 84 1.1 NNE 22 26 12 14 - - -
26/09:00am 6.1 3.0 3.8 85 1.0 NE 9 13 5 7 - - -
26/08:30am 5.5 2.9 3.3 86 0.9 NE 6 7 3 4 - - -
26/08:00am 5.3 3.5 3.3 87 0.8 ENE 2 4 1 2 - - -
26/07:30am 5.2 3.4 3.2 87 0.8 E 2 4 1 2 - - -
26/07:00am 5.0 2.7 3.0 87 0.8 E 4 7 2 4 - - -
26/06:30am 4.9 2.7 3.1 88 0.7 E 4 6 2 3 - - -
26/06:00am 5.4 3.2 3.4 87 0.8 ENE 4 7 2 4 - - -
26/05:30am 5.6 3.5 3.8 88 0.8 ENE 4 6 2 3 - - -
26/05:00am 5.8 4.1 4.0 88 0.8 NE 2 4 1 2 - - -
26/04:30am 6.2 4.6 4.4 88 0.8 NE 2 4 1 2 - - -
26/04:00am 5.7 3.6 3.9 88 0.8 E 4 4 2 2 - - -
26/03:30am 5.7 3.6 3.9 88 0.8 ENE 4 7 2 4 - - -
26/03:00am 5.6 3.5 3.8 88 0.8 ENE 4 6 2 3 - - -
26/02:30am 5.6 3.5 3.8 88 0.8 ENE 4 7 2 4 - - -
26/02:00am 5.7 3.6 3.9 88 0.8 E 4 6 2 3 - - -
26/01:30am 6.0 3.9 4.0 87 0.8 E 4 6 2 3 - - -
26/01:00am 7.1 4.9 5.1 87 0.9 NE 6 7 3 4 - - -
26/12:30am 7.0 5.1 5.0 87 0.9 ENE 4 7 2 4 - - -
26/12:00am 7.2 4.7 5.0 86 1.0 NE 7 9 4 5 - - -
 
Date/Time
EST
Temp
°C
App
Temp
°C
Dew
Point
°C
Rel
Hum
%
Delta-T
°C
Wind Press
QNH
hPa
Press
MSL
hPa
Rain since
9am
mm
Dir  Spd
km/h
Gust
km/h
Spd
kts
Gust
kts
25/11:30pm 7.8 5.7 5.6 86 1.0 NE 6 7 3 4 - - -
25/11:00pm 7.9 5.7 5.5 85 1.1 NE 6 7 3 4 - - -
25/10:30pm 8.1 6.3 5.6 84 1.1 NE 4 6 2 3 - - -
25/10:00pm 8.2 6.5 5.7 84 1.1 ENE 4 6 2 3 - - -
25/09:30pm 8.6 6.6 6.1 84 1.1 NNE 6 7 3 4 - - -
25/09:00pm 8.7 7.8 6.0 83 1.2 CALM 0 2 0 1 - - -
25/08:30pm 8.9 7.2 6.0 82 1.3 ENE 4 6 2 3 - - -
25/08:00pm 9.3 8.0 5.9 79 1.6 E 2 4 1 2 - - -
25/07:30pm 10.3 9.5 6.5 77 1.8 CALM 0 0 0 0 - - -
25/07:00pm 10.7 9.1 6.5 75 2.0 WNW 4 4 2 2 - - -
25/06:30pm 10.8 8.3 6.7 76 1.9 W 9 9 5 5 - - -
25/06:00pm 10.7 8.8 7.4 80 1.6 NW 7 7 4 4 - - -
25/05:30pm 10.4 8.7 7.6 83 1.3 WNW 6 7 3 4 - - -
25/05:00pm 10.1 7.7 7.2 82 1.4 WNW 9 13 5 7 - - -
25/04:30pm 10.1 6.2 7.0 81 1.5 WSW 17 20 9 11 - - -
25/04:00pm 10.5 6.6 7.0 79 1.7 W 17 20 9 11 - - -
25/03:30pm 10.7 8.3 7.0 78 1.8 WNW 9 11 5 6 - - -
25/03:00pm 10.6 8.1 6.7 77 1.8 WNW 9 11 5 6 - - -
25/02:30pm 10.2 7.7 6.7 79 1.6 NW 9 13 5 7 - - -
25/02:00pm 9.8 6.8 6.2 78 1.7 NW 11 15 6 8 - - -
25/01:30pm 9.6 6.6 6.1 79 1.6 NNW 11 15 6 8 - - -
25/01:00pm 9.3 6.3 6.0 80 1.5 NW 11 15 6 8 - - -
25/12:30pm 9.0 5.6 5.9 81 1.4 NW 13 17 7 9 - - -
25/12:00pm 8.8 5.1 6.1 83 1.2 NNW 15 19 8 10 - - -
25/11:30am 8.4 4.6 5.9 84 1.1 NW 15 17 8 9 - - -
25/11:00am 8.2 4.0 5.7 84 1.1 WNW 17 20 9 11 - - -
25/10:30am 8.0 3.8 5.6 85 1.1 NW 17 20 9 11 - - -
25/10:00am 8.2 3.6 5.8 85 1.1 NW 19 22 10 12 - - -
25/09:30am 8.4 3.9 6.0 85 1.1 WNW 19 22 10 12 - - -
25/09:00am 8.2 5.2 5.8 85 1.1 WNW 11 15 6 8 - - -
25/08:30am 8.3 4.0 5.4 82 1.3 WNW 17 26 9 14 - - -
25/08:00am 8.7 5.7 6.2 84 1.1 WNW 11 15 6 8 - - -
25/07:30am 8.4 6.2 6.2 86 1.0 W 7 17 4 9 - - -
25/07:00am 7.8 5.1 5.4 85 1.1 SW 9 17 5 9 - - -
25/06:30am 7.8 3.8 4.9 82 1.3 W 15 20 8 11 - - -
25/06:00am 8.0 3.3 5.1 82 1.3 W 19 26 10 14 - - -
25/05:30am 8.1 2.2 5.6 84 1.1 W 26 33 14 18 - - -
25/05:00am 7.9 3.7 5.5 85 1.1 W 17 28 9 15 - - -
25/04:30am 7.6 2.6 4.6 81 1.3 W 20 28 11 15 - - -
25/04:00am 7.5 3.5 4.8 83 1.2 WSW 15 20 8 11 - - -
25/03:30am 7.6 2.2 4.6 81 1.3 WNW 22 26 12 14 - - -
25/03:00am 7.9 3.0 5.0 82 1.3 W 20 24 11 13 - - -
25/02:30am 7.3 4.0 4.6 83 1.2 SW 11 15 6 8 - - -
25/02:00am 8.4 2.6 4.6 77 1.7 W 24 37 13 20 - - -
25/01:30am 8.2 4.9 4.6 78 1.6 SW 11 19 6 10 - - -
25/01:00am 8.0 0.8 4.8 80 1.4 W 32 43 17 23 - - -
25/12:30am 7.9 1.4 4.8 81 1.4 W 28 35 15 19 - - -
25/12:18am 8.0 3.1 5.1 82 1.3 W 20 35 11 19 - - -
25/12:00am 6.1 4.3 3.3 82 1.2 SSW 2 6 1 3 - - -
 
Date/Time
EST
Temp
°C
App
Temp
°C
Dew
Point
°C
Rel
Hum
%
Delta-T
°C
Wind Press
QNH
hPa
Press
MSL
hPa
Rain since
9am
mm
Dir  Spd
km/h
Gust
km/h
Spd
kts
Gust
kts
24/11:30pm 7.4 0.8 4.4 81 1.3 W 28 37 15 20 - - -
24/11:00pm 7.6 3.3 3.5 75 1.7 SW 15 20 8 11 - - -
24/10:32pm 7.1 -0.7 3.0 75 1.7 WSW 33 50 18 27 - - -
24/10:30pm 8.2 1.6 4.0 75 1.8 WSW 28 50 15 27 - - -
24/10:28pm 8.8 3.9 5.2 78 1.6 WSW 20 46 11 25 - - -
24/10:00pm 8.1 4.7 3.9 75 1.8 SW 11 17 6 9 - - -
24/09:30pm 6.9 3.7 3.0 76 1.6 SW 9 13 5 7 - - -
24/09:00pm 6.6 -0.7 2.5 75 1.7 SW 30 46 16 25 - - -
24/08:44pm 8.2 1.5 3.9 74 1.9 WSW 28 50 15 27 - - -
24/08:30pm 7.7 0.0 3.6 75 1.8 WSW 33 44 18 24 - - -
24/08:00pm 8.3 0.7 3.9 74 1.9 W 33 43 18 23 - - -
24/07:38pm 7.2 -0.4 3.1 75 1.7 WSW 32 50 17 27 - - -
24/07:30pm 7.8 0.3 3.5 74 1.8 W 32 43 17 23 - - -
24/07:14pm 7.0 -2.4 2.5 73 1.9 W 41 54 22 29 - - -
24/07:00pm 8.2 -0.7 3.1 70 2.2 W 39 44 21 24 - - -
24/06:30pm 8.1 0.4 3.6 73 1.9 W 33 44 18 24 - - -
24/06:00pm 8.3 0.7 3.8 73 1.9 W 33 41 18 22 - - -
24/05:30pm 8.5 -1.1 3.6 71 2.1 W 43 54 23 29 - - -
24/05:00pm 8.4 0.3 3.5 71 2.1 W 35 44 19 24 - - -
24/04:30pm 8.2 -0.7 3.3 71 2.1 WNW 39 46 21 25 - - -
24/04:00pm 8.2 2.3 3.7 73 1.9 WNW 24 32 13 17 - - -
24/03:30pm 7.4 0.0 4.0 79 1.5 W 32 37 17 20 - - -
24/03:18pm 6.1 -3.2 2.9 80 1.3 WSW 41 63 22 34 - - -
24/03:15pm 6.5 -3.2 2.8 77 1.5 W 43 63 23 34 - - -
24/03:12pm 8.2 -0.5 3.9 74 1.9 W 39 57 21 31 - - -
24/03:00pm 8.1 0.1 3.6 73 1.9 WNW 35 46 19 25 - - -
24/02:30pm 7.2 -0.8 3.6 78 1.5 WNW 35 41 19 22 - - -
24/02:00pm 7.5 -0.5 3.9 78 1.5 W 35 43 19 23 - - -
24/01:30pm 7.3 -2.8 3.5 77 1.6 W 46 69 25 37 - - -
24/01:28pm 8.1 -1.4 3.9 75 1.8 W 43 69 23 37 - - -
24/01:00pm 8.4 0.5 4.2 75 1.8 WNW 35 43 19 23 - - -
24/12:30pm 7.8 0.8 4.0 77 1.6 W 30 37 16 20 - - -
24/12:00pm 6.9 -0.2 3.3 78 1.5 WNW 30 35 16 19 - - -
24/11:30am 7.1 -0.4 3.7 79 1.4 W 32 39 17 21 - - -
24/11:00am 7.6 -1.5 4.2 79 1.5 W 41 50 22 27 - - -
24/10:30am 8.0 -1.4 4.4 78 1.6 W 43 54 23 29 - - -
24/10:00am 7.8 -1.6 4.2 78 1.6 WNW 43 52 23 28 - - -
24/09:30am 8.2 -0.8 4.4 77 1.7 WNW 41 50 22 27 - - -
24/09:00am 7.9 -0.8 3.9 76 1.7 WNW 39 44 21 24 - - -
24/08:30am 7.9 -0.9 3.8 75 1.8 WNW 39 46 21 25 - - -
24/08:00am 8.6 0.3 4.2 74 1.9 WNW 37 46 20 25 - - -
24/07:30am 8.6 1.0 3.8 72 2.1 WNW 33 43 18 23 - - -
24/07:00am 8.5 1.0 4.3 75 1.8 NW 33 43 18 23 - - -
24/06:30am 8.9 2.9 5.1 77 1.7 N 26 35 14 19 - - -
24/06:00am 9.0 3.3 4.8 75 1.9 N 24 30 13 16 - - -
24/05:30am 8.4 3.6 4.4 76 1.8 NW 19 28 10 15 - - -
24/05:00am 9.1 3.7 4.3 72 2.1 NNW 22 30 12 16 - - -
24/04:30am 9.1 3.6 5.7 79 1.5 N 24 30 13 16 - - -
24/04:00am 8.4 3.1 5.2 80 1.4 N 22 26 12 14 - - -
24/03:30am 9.3 4.0 5.1 75 1.9 NNW 22 30 12 16 - - -
24/03:00am 9.6 4.4 5.4 75 1.9 NNW 22 28 12 15 - - -
24/02:30am 9.9 3.4 4.9 71 2.2 NNW 28 33 15 18 - - -
24/02:00am 9.8 4.1 5.0 72 2.2 NW 24 30 13 16 - - -
24/01:30am 9.7 3.2 4.9 72 2.2 NW 28 33 15 18 - - -

Latest Capital City Observations: Canberra | Sydney | Melbourne | Brisbane | Adelaide | Perth | Hobart | Darwin

Other Formats:

Comma delimited format used in spreadsheet applications
http://www.bom.gov.au/fwo/IDV60901/IDV60901.94871.axf

JavaScript Object Notation format (JSON) in row-major order
http://www.bom.gov.au/fwo/IDV60901/IDV60901.94871.json